Aix Les Milles, France

6:15 AM CEST on July 28, 2014 (GMT +0200)
Realtor (IPACACAB2) Elev 590 ft | 43.47 °N, 5.34 °E | Change Station

Current weather conditions updated 8 seconds ago

Clear
Clear
65.3 °F
Feels Like 65.3 °F
N
0.0
Wind Variable Wind from NW
Gusts 0.0 mph

Today is forecast to be Much Cooler than yesterday.

Today
High -- | Low -- °F
--% Chance of Precip.
Yesterday
High -- | Low -- °F
Precip. -- in
6:23 AM 9:05 PM
New Moon, 1% visible
Pressure 29.89 in
Visibility 6.2 miles
Clouds
Dew Point 40 °F
Humidity 40%
Rainfall 0.00 in
Snow Depth Not available.
UV 0.0 out of 12
Pollen Not available.
Air Quality Not available.
Flu Activity Not available.
METAR LFMY 280400Z AUTO VRB02KT 9999 NSC 21/14 Q1012

More Conditions Fewer Conditions

Pressure 29.89 in
Visibility 6.2 miles
Clouds
Dew Point 40 °F
Humidity 40%
Rainfall 0.00 in
Snow Depth Not available.
UV 0.0 out of 12
Pollen Not available.
Air Quality Not available.
Flu Activity Not available.
METAR LFMY 280400Z AUTO VRB02KT 9999 NSC 21/14 Q1012

More Conditions Fewer Conditions

10-Day Weather Forecast

Almanac

Astronomy

Jul. 28, 2014 Rise Set
Actual Time 6:23 AM CEST 9:05 PM CEST
Civil Twilight 5:50 AM CEST 9:38 PM CEST
Nautical Twilight 5:08 AM CEST 10:20 PM CEST
Astronomical Twilight 4:20 AM CEST 11:07 PM CEST
Moon 7:55 AM CEST 9:33 PM CEST
Length of Visible Light 15h 48m
Length of Day
14h 42m
Tomorrow will be 2m 9s shorter.
New Moon, 1% of the Moon is Illuminated
Today
New Moon
Aug 3
First Quarter
Aug 10
Full
Aug 17
Last Quarter
Aug 25
New

Yesterday's Extremes

Country Highs Country Lows

Community

WunderPhotos

Upload Photos

1,738,299 photos uploaded!

Nearby

Snow Depth

Not available.

Earthquake Activity

City Distance Mag. Time & Date
No recent earthquake activity has been reported nearby.
Minimum magnitude displayed is 2.5.

Coastal Water Temperatures

Place Temperature
No Stations Reporting

Nearby Weather Stations

Station Location Temp. Heat Index Dew Point Humidity Wind Precip. Elev Updated Type
Realtor, CABRIES 65.3 °F - 40 °F 40% NW  at  0.0 mph 0.00 in / hr 590 ft 6:15 AM CEST Rapid Fire
Le Claou, Gardanne 66.7 °F - 57 °F 72% North  at  0.0 mph 0.00 in / hr 774 ft 6:15 AM CEST Rapid Fire
Marseille, sur les hauteurs de Sainte Ma, Marseille 73.8 °F 77 °F 58 °F 59% ESE  at  1.8 mph 0.00 in / hr 341 ft 6:15 AM CEST Normal
pertuis84, Pertuis 58.9 °F - 57 °F 92% SW  at  0.0 mph 0.00 in / hr 676 ft 6:07 AM CEST Normal
Marseille 72.7 °F 75 °F 62 °F 69% North  at  4.0 mph 0.00 in / hr 33 ft 6:10 AM CEST Normal
St-Maximin-La-Ste-Baume 64.2 °F - 59 °F 83% NNW  at  3.0 mph 0.00 in / hr 1007 ft 6:02 AM CEST Normal
Mimet 62.8 °F - 56 °F 80% WSW  at  1.3 mph 0.00 in / hr 1811 ft 5:54 AM CEST Normal

Show More Stations Show Fewer Stations